Aviation Digital Data Service (ADDS)

Output produced by METARs form (1825 UTC 06 July 2020)
found at http://aviationweather.gov/metar/data/
 
METAR text: KDKB 061815Z AUTO 20008KT 10SM BKN050 OVC070 32/20 A3003 RMK AO2 T03190198
Conditions at: KDKB (DE KALB , IL, US) observed 1815 UTC 06 July 2020
Temperature: 31.9°C (89°F)
Dewpoint: 19.8°C (68°F) [RH = 49%]
Pressure (altimeter): 30.03 inches Hg (1017.0 mb)
Winds: from the SSW (200 degrees) at 9 MPH (8 knots; 4.1 m/s)
Visibility: 10 or more miles (16+ km)
Ceiling: 5000 feet AGL
Clouds: broken clouds at 5000 feet AGL
overcast cloud deck at 7000 feet AGL
Weather: automated observation with no human augmentation;
there may or may not be significant weather present at this time